Terminal Aerodrome Forecast
Issued by NWS Twin Cities, MN

Home | Current Version | Previous Version | Text Only | Print | Product List | Glossary Off
Versions: 1 2 3 4 5 6 7 8 9 10 11 12 13 14 15 16 17 18 19 20 21 22 23 24 25 26 27 28

000
FTUS43 KMPX 240859 AAA
TAFMSP
TAF AMD
KMSP 240859Z 2409/2512 08005KT P6SM OVC060
     FM241200 11008KT P6SM VCSH OVC040
     FM241500 11012G18KT 5SM -RA OVC030
     FM242300 09012KT 6SM -DZ BR OVC020=

USA.gov is the U.S. government's official web portal to all federal, state and local government web resources and services.